createdAt,value
2022-10-23T00:00:33.298Z,23.90
2022-10-23T00:01:40.549Z,23.90
2022-10-23T00:02:42.405Z,23.90
2022-10-23T00:03:44.982Z,23.91
2022-10-23T00:04:46.541Z,23.89
2022-10-23T00:05:48.114Z,23.92
2022-10-23T00:06:50.179Z,23.88
2022-10-23T00:07:53.375Z,23.89
2022-10-23T00:08:55.753Z,23.90
2022-10-23T00:09:57.273Z,23.91
2022-10-23T00:10:58.791Z,23.92
2022-10-23T00:12:00.347Z,23.90
2022-10-23T00:13:02.641Z,23.91
2022-10-23T00:14:06.619Z,23.90
2022-10-23T00:15:08.523Z,23.88
2022-10-23T00:16:10.642Z,23.88
2022-10-23T00:17:12.767Z,23.88
2022-10-23T00:18:14.289Z,23.89
2022-10-23T00:19:16.086Z,23.88
2022-10-23T00:20:18.095Z,23.88
2022-10-23T00:21:20.025Z,23.88
2022-10-23T00:22:21.627Z,23.89
2022-10-23T00:23:23.837Z,23.87
2022-10-23T00:24:25.349Z,23.86
2022-10-23T00:25:26.917Z,23.86
2022-10-23T00:26:28.441Z,23.84
2022-10-23T00:27:29.962Z,23.85
2022-10-23T00:28:31.487Z,23.84
2022-10-23T00:29:33.018Z,23.84
2022-10-23T00:30:34.541Z,23.84
2022-10-23T00:31:37.380Z,23.84
2022-10-23T00:32:39.190Z,23.84
2022-10-23T00:33:41.243Z,23.84
2022-10-23T00:34:42.807Z,23.84
2022-10-23T00:35:44.581Z,23.85
2022-10-23T00:36:46.114Z,23.86
2022-10-23T00:37:47.609Z,23.86
2022-10-23T00:38:50.045Z,23.86
2022-10-23T00:39:51.630Z,23.87
2022-10-23T00:40:53.179Z,23.87
2022-10-23T00:41:54.741Z,23.87
2022-10-23T00:42:56.306Z,23.85
2022-10-23T00:44:05.445Z,23.84
2022-10-23T00:45:18.291Z,23.82
2022-10-23T00:46:19.874Z,23.86
2022-10-23T00:47:21.692Z,23.86
2022-10-23T00:48:25.493Z,23.85
2022-10-23T00:49:28.264Z,23.86
2022-10-23T00:50:32.595Z,23.88
2022-10-23T00:51:41.986Z,23.85
2022-10-23T00:52:50.589Z,23.85
2022-10-23T00:54:06.660Z,23.85
2022-10-23T00:55:21.389Z,23.89
2022-10-23T00:56:23.048Z,23.88
2022-10-23T00:57:25.243Z,23.86
2022-10-23T00:58:26.841Z,23.83
2022-10-23T00:59:29.097Z,23.79
2022-10-23T01:00:42.294Z,23.75
2022-10-23T01:01:44.333Z,23.79
2022-10-23T01:02:46.260Z,23.78
2022-10-23T01:03:48.895Z,23.79
2022-10-23T01:04:51.251Z,23.80
2022-10-23T01:06:12.961Z,23.79
2022-10-23T01:07:33.346Z,23.78
2022-10-23T01:08:56.218Z,23.76
2022-10-23T01:10:15.262Z,23.77
2022-10-23T01:11:29.045Z,23.79
2022-10-23T01:13:00.625Z,23.75
2022-10-23T01:14:19.922Z,23.77
2022-10-23T01:15:44.649Z,23.74
2022-10-23T01:17:17.115Z,23.78
2022-10-23T01:18:32.757Z,23.78
2022-10-23T01:20:01.454Z,23.78
2022-10-23T01:21:12.313Z,23.80
2022-10-23T01:22:33.172Z,23.83
2022-10-23T01:24:11.755Z,23.79
2022-10-23T01:25:16.145Z,23.83
2022-10-23T01:26:31.560Z,23.76
2022-10-23T01:27:37.873Z,23.80
2022-10-23T01:28:51.037Z,23.76
2022-10-23T01:30:11.764Z,23.77
2022-10-23T01:31:19.039Z,23.79
2022-10-23T01:32:40.931Z,23.75
2022-10-23T01:33:51.332Z,23.80
2022-10-23T01:35:03.231Z,23.80
2022-10-23T01:36:08.767Z,23.81
2022-10-23T01:37:14.050Z,23.82
2022-10-23T01:38:23.063Z,23.79
2022-10-23T01:39:29.949Z,23.80
2022-10-23T01:40:41.743Z,23.82
2022-10-23T01:41:51.430Z,23.80
2022-10-23T01:42:57.303Z,23.82
2022-10-23T01:44:24.554Z,23.78
2022-10-23T01:45:36.254Z,23.83
2022-10-23T01:46:38.000Z,23.85
2022-10-23T01:47:42.111Z,23.86
2022-10-23T01:48:51.456Z,23.81
2022-10-23T01:49:55.991Z,23.84
2022-10-23T01:51:01.737Z,23.83
2022-10-23T01:52:07.451Z,23.83
2022-10-23T01:53:09.139Z,23.87
2022-10-23T01:54:13.791Z,23.85
2022-10-23T01:55:15.864Z,23.85
2022-10-23T01:56:21.792Z,23.82
2022-10-23T01:57:25.666Z,23.86
2022-10-23T01:58:29.786Z,23.84
2022-10-23T01:59:36.863Z,23.82
2022-10-23T02:00:40.867Z,23.87
2022-10-23T02:01:46.340Z,23.89
2022-10-23T02:02:50.252Z,23.91
2022-10-23T02:03:53.518Z,23.92
2022-10-23T02:05:12.296Z,23.86
2022-10-23T02:06:14.095Z,23.92
2022-10-23T02:07:15.715Z,23.94
2022-10-23T02:08:17.387Z,23.96
2022-10-23T02:09:19.202Z,23.95
2022-10-23T02:10:23.769Z,23.96
2022-10-23T02:11:25.391Z,23.96
2022-10-23T02:12:31.727Z,23.95
2022-10-23T02:13:47.976Z,23.90
2022-10-23T02:14:57.213Z,23.94
2022-10-23T02:16:17.362Z,23.89
2022-10-23T02:17:32.919Z,23.90
2022-10-23T02:18:46.138Z,23.89
2022-10-23T02:19:58.445Z,23.89
2022-10-23T02:21:07.746Z,23.90
2022-10-23T02:22:14.533Z,23.89
2022-10-23T02:23:50.409Z,23.88
2022-10-23T02:25:03.687Z,23.89
2022-10-23T02:26:15.634Z,23.88
2022-10-23T02:27:23.838Z,23.89
2022-10-23T02:28:38.807Z,23.86
2022-10-23T02:29:46.770Z,23.84
2022-10-23T02:30:50.561Z,23.87
2022-10-23T02:31:52.167Z,23.88
2022-10-23T02:32:55.871Z,23.89
2022-10-23T02:33:57.578Z,23.87
2022-10-23T02:34:59.284Z,23.85
2022-10-23T02:36:00.871Z,23.84
2022-10-23T02:37:02.683Z,23.85
2022-10-23T02:38:04.263Z,23.83
2022-10-23T02:39:05.802Z,23.83
2022-10-23T02:40:09.436Z,23.81
2022-10-23T02:41:14.003Z,23.80
2022-10-23T02:42:25.894Z,23.79
2022-10-23T02:43:36.795Z,23.80
2022-10-23T02:44:47.349Z,23.79
2022-10-23T02:45:58.845Z,23.80
2022-10-23T02:47:33.355Z,23.80
2022-10-23T02:49:24.572Z,23.80
2022-10-23T02:50:40.655Z,23.82
2022-10-23T02:51:55.965Z,23.81
2022-10-23T02:53:03.402Z,23.84
2022-10-23T02:54:20.671Z,23.82
2022-10-23T02:55:34.589Z,23.81
2022-10-23T02:56:57.515Z,23.81
2022-10-23T02:58:14.517Z,23.80
2022-10-23T02:59:45.590Z,23.79
2022-10-23T03:00:53.890Z,23.79
2022-10-23T03:02:03.974Z,23.79
2022-10-23T03:03:17.293Z,23.77
2022-10-23T03:04:21.257Z,23.81
2022-10-23T03:05:27.275Z,23.78
2022-10-23T03:06:28.816Z,23.79
2022-10-23T03:07:30.390Z,23.79
2022-10-23T03:08:44.562Z,23.76
2022-10-23T03:09:46.478Z,23.80
2022-10-23T03:11:54.728Z,23.79
2022-10-23T03:12:56.390Z,23.79
2022-10-23T03:13:57.914Z,23.78
2022-10-23T03:14:59.451Z,23.77
2022-10-23T03:16:00.990Z,23.76
2022-10-23T03:17:03.107Z,23.78
2022-10-23T03:18:04.702Z,23.79
2022-10-23T03:19:06.313Z,23.79
2022-10-23T03:20:09.046Z,23.80
2022-10-23T03:21:10.626Z,23.79
2022-10-23T03:22:12.203Z,23.78
2022-10-23T03:23:14.041Z,23.77
2022-10-23T03:24:15.649Z,23.77
2022-10-23T03:25:17.277Z,23.78
2022-10-23T03:26:18.844Z,23.77
2022-10-23T03:27:20.445Z,23.76
2022-10-23T03:28:22.720Z,23.77
2022-10-23T03:29:24.227Z,23.77
2022-10-23T03:30:25.804Z,23.76
2022-10-23T03:31:27.350Z,23.75
2022-10-23T03:32:28.921Z,23.75
2022-10-23T03:33:31.592Z,23.76
2022-10-23T03:34:33.135Z,23.75
2022-10-23T03:35:34.675Z,23.76
2022-10-23T03:36:36.191Z,23.77
2022-10-23T03:37:37.745Z,23.76
2022-10-23T03:38:39.259Z,23.74
2022-10-23T03:39:40.785Z,23.75
2022-10-23T03:40:43.178Z,23.74
2022-10-23T03:41:44.945Z,23.73
2022-10-23T03:42:46.566Z,23.74
2022-10-23T03:43:48.092Z,23.76
2022-10-23T03:44:49.842Z,23.75
2022-10-23T03:45:52.087Z,23.78
2022-10-23T03:46:53.701Z,23.79
2022-10-23T03:47:55.233Z,23.77
2022-10-23T03:48:58.959Z,23.77
2022-10-23T03:50:00.483Z,23.76
2022-10-23T03:51:02.037Z,23.75
2022-10-23T03:52:04.018Z,23.76
2022-10-23T03:53:05.529Z,23.76
2022-10-23T03:54:07.752Z,23.78
2022-10-23T03:55:09.394Z,23.77
2022-10-23T03:56:10.931Z,23.75
2022-10-23T03:57:12.678Z,23.75
2022-10-23T03:58:14.265Z,23.75
2022-10-23T03:59:16.030Z,23.75
2022-10-23T04:00:17.758Z,23.77
2022-10-23T04:01:19.333Z,23.76
2022-10-23T04:02:21.023Z,23.78
2022-10-23T04:03:22.730Z,23.78
2022-10-23T04:04:25.087Z,23.77
2022-10-23T04:05:26.661Z,23.77
2022-10-23T04:06:28.209Z,23.78
2022-10-23T04:07:29.735Z,23.77
2022-10-23T04:08:31.242Z,23.78
2022-10-23T04:09:32.834Z,23.77
2022-10-23T04:10:34.380Z,23.76
2022-10-23T04:11:36.013Z,23.78
2022-10-23T04:12:37.568Z,23.78
2022-10-23T04:13:39.187Z,23.77
2022-10-23T04:14:40.691Z,23.76
2022-10-23T04:15:48.541Z,23.74
2022-10-23T04:16:50.085Z,23.80
2022-10-23T04:17:51.722Z,23.77
2022-10-23T04:18:53.625Z,23.76
2022-10-23T04:19:55.355Z,23.75
2022-10-23T04:20:56.893Z,23.75
2022-10-23T04:21:58.758Z,23.74
2022-10-23T04:23:00.268Z,23.74
2022-10-23T04:24:01.859Z,23.76
2022-10-23T04:25:03.684Z,23.75
2022-10-23T04:26:05.418Z,23.77
2022-10-23T04:27:06.916Z,23.73
2022-10-23T04:28:08.458Z,23.71
2022-10-23T04:29:09.981Z,23.67
2022-10-23T04:30:12.088Z,23.66
2022-10-23T04:31:13.658Z,23.67
2022-10-23T04:32:15.199Z,23.66
2022-10-23T04:33:16.776Z,23.67
2022-10-23T04:34:18.855Z,23.66
2022-10-23T04:35:20.440Z,23.68
2022-10-23T04:36:21.990Z,23.68
2022-10-23T04:37:23.558Z,23.70
2022-10-23T04:38:26.144Z,23.67
2022-10-23T04:39:27.648Z,23.68
2022-10-23T04:40:29.155Z,23.68
2022-10-23T04:41:30.866Z,23.70
2022-10-23T04:42:32.372Z,23.72
2022-10-23T04:43:33.922Z,23.71
2022-10-23T04:44:35.512Z,23.72
2022-10-23T04:45:37.079Z,23.73
2022-10-23T04:46:38.645Z,23.73
2022-10-23T04:47:40.262Z,23.72
2022-10-23T04:48:41.757Z,23.73
2022-10-23T04:49:43.256Z,23.74
2022-10-23T04:51:51.277Z,23.76
2022-10-23T04:52:57.057Z,23.74
2022-10-23T04:53:58.577Z,23.77
2022-10-23T04:55:00.113Z,23.76
2022-10-23T04:56:01.913Z,23.76
2022-10-23T04:57:03.611Z,23.76
2022-10-23T04:58:05.154Z,23.74
2022-10-23T04:59:06.805Z,23.76
2022-10-23T05:00:10.519Z,23.74
2022-10-23T05:01:12.259Z,23.74
2022-10-23T05:02:13.884Z,23.77
2022-10-23T05:03:17.606Z,23.76
2022-10-23T05:04:19.206Z,23.78
2022-10-23T05:05:20.714Z,23.79
2022-10-23T05:06:22.639Z,23.80
2022-10-23T05:07:24.163Z,23.80
2022-10-23T05:08:25.726Z,23.83
2022-10-23T05:09:27.311Z,23.84
2022-10-23T05:10:29.938Z,23.82
2022-10-23T05:11:31.478Z,23.82
2022-10-23T05:12:32.975Z,23.83
2022-10-23T05:13:35.628Z,23.83
2022-10-23T05:14:37.186Z,23.84
2022-10-23T05:15:38.738Z,23.82
2022-10-23T05:16:59.605Z,23.79
2022-10-23T05:18:13.590Z,23.81
2022-10-23T05:19:23.446Z,23.84
2022-10-23T05:20:31.364Z,23.84
2022-10-23T05:21:35.974Z,23.84
2022-10-23T05:22:40.335Z,23.84
2022-10-23T05:23:44.415Z,23.86
2022-10-23T05:24:49.660Z,23.88
2022-10-23T05:25:52.608Z,23.88
2022-10-23T05:26:54.493Z,23.88
2022-10-23T05:27:56.058Z,23.90
2022-10-23T05:28:57.672Z,23.93
2022-10-23T05:29:59.395Z,23.96
2022-10-23T05:31:03.734Z,23.95
2022-10-23T05:32:08.786Z,24.00
2022-10-23T05:33:11.295Z,24.03
2022-10-23T05:34:16.942Z,24.02
2022-10-23T05:35:23.182Z,24.02
2022-10-23T05:36:26.141Z,24.04
2022-10-23T05:37:28.150Z,24.06
2022-10-23T05:38:32.956Z,24.05
2022-10-23T05:39:34.973Z,24.05
2022-10-23T05:40:36.677Z,24.07
2022-10-23T05:41:38.195Z,24.08
2022-10-23T05:42:41.644Z,24.09
2022-10-23T05:43:43.496Z,24.09
2022-10-23T05:44:45.002Z,24.06
2022-10-23T05:45:47.414Z,24.06
2022-10-23T05:46:48.919Z,24.04
2022-10-23T05:47:50.535Z,24.02
2022-10-23T05:48:52.636Z,24.01
2022-10-23T05:49:54.169Z,24.02
2022-10-23T05:50:55.690Z,24.01
2022-10-23T05:51:57.271Z,24.00
2022-10-23T05:52:58.820Z,24.00
2022-10-23T05:54:00.343Z,24.00
2022-10-23T05:55:01.961Z,23.99
2022-10-23T05:56:05.754Z,23.99
2022-10-23T05:57:07.386Z,24.00
2022-10-23T05:58:09.013Z,24.00
2022-10-23T05:59:10.917Z,24.01
2022-10-23T06:00:12.990Z,24.01
2022-10-23T06:01:15.046Z,23.99
2022-10-23T06:02:16.642Z,23.99
2022-10-23T06:03:18.279Z,24.00
2022-10-23T06:04:19.803Z,24.02
2022-10-23T06:05:21.311Z,24.04
2022-10-23T06:06:22.833Z,24.03
2022-10-23T06:07:31.163Z,24.02
2022-10-23T06:08:35.688Z,24.03
2022-10-23T06:09:37.243Z,24.02
2022-10-23T06:10:38.745Z,24.03
2022-10-23T06:11:40.332Z,24.03
2022-10-23T06:12:42.088Z,24.02
2022-10-23T06:13:45.415Z,24.02
2022-10-23T06:14:47.298Z,24.02
2022-10-23T06:15:48.905Z,24.00
2022-10-23T06:16:50.514Z,24.01
2022-10-23T06:17:52.030Z,24.02
2022-10-23T06:18:54.240Z,24.00
2022-10-23T06:20:00.880Z,24.03
2022-10-23T06:21:02.433Z,24.01
2022-10-23T06:22:05.321Z,24.00
2022-10-23T06:23:07.418Z,23.99
2022-10-23T06:24:11.133Z,23.98
2022-10-23T06:25:12.679Z,23.99
2022-10-23T06:26:16.466Z,24.01
2022-10-23T06:27:17.982Z,24.00
2022-10-23T06:28:20.695Z,24.01
2022-10-23T06:29:22.462Z,24.03
2022-10-23T06:30:24.603Z,24.03
2022-10-23T06:31:28.257Z,24.02
2022-10-23T06:32:32.356Z,24.01
2022-10-23T06:33:34.029Z,24.01
2022-10-23T06:34:35.561Z,24.01
2022-10-23T06:35:37.077Z,23.98
2022-10-23T06:36:38.794Z,23.99
2022-10-23T06:37:40.370Z,23.99
2022-10-23T06:38:41.923Z,23.99
2022-10-23T06:39:43.452Z,24.02
2022-10-23T06:40:47.466Z,24.03
2022-10-23T06:41:49.019Z,24.04
2022-10-23T06:42:50.516Z,24.05
2022-10-23T06:43:52.028Z,24.04
2022-10-23T06:44:53.531Z,24.02
2022-10-23T06:45:55.190Z,24.04
2022-10-23T06:46:56.846Z,24.05
2022-10-23T06:47:58.505Z,24.04
2022-10-23T06:49:00.031Z,24.03
2022-10-23T06:50:01.614Z,24.04
2022-10-23T06:51:08.377Z,24.04
2022-10-23T06:52:23.154Z,24.06
2022-10-23T06:53:31.434Z,24.06
2022-10-23T06:54:33.036Z,24.07
2022-10-23T06:55:34.676Z,24.04
2022-10-23T06:56:36.382Z,24.06
2022-10-23T06:57:37.938Z,24.06
2022-10-23T06:58:39.897Z,24.07
2022-10-23T06:59:41.521Z,24.09
2022-10-23T07:00:44.521Z,24.10
2022-10-23T07:01:46.507Z,24.09
2022-10-23T07:02:48.237Z,24.07
2022-10-23T07:03:49.749Z,24.07
2022-10-23T07:04:51.263Z,24.09
2022-10-23T07:05:52.849Z,24.11
2022-10-23T07:06:57.568Z,24.09
2022-10-23T07:07:59.123Z,24.10
2022-10-23T07:09:00.635Z,24.12
2022-10-23T07:10:02.286Z,24.12
2022-10-23T07:11:05.937Z,24.12
2022-10-23T07:12:08.631Z,24.16
2022-10-23T07:13:11.770Z,24.16
2022-10-23T07:14:13.266Z,24.17
2022-10-23T07:15:15.843Z,24.14
2022-10-23T07:16:20.366Z,24.14
2022-10-23T07:17:21.965Z,24.14
2022-10-23T07:18:23.538Z,24.15
2022-10-23T07:19:25.158Z,24.17
2022-10-23T07:20:26.759Z,24.15
2022-10-23T07:21:30.347Z,24.15
2022-10-23T07:22:31.892Z,24.15
2022-10-23T07:23:33.430Z,24.14
2022-10-23T07:24:37.164Z,24.13
2022-10-23T07:25:38.686Z,24.13
2022-10-23T07:26:41.565Z,24.14
2022-10-23T07:27:43.309Z,24.15
2022-10-23T07:28:48.070Z,24.13
2022-10-23T07:29:52.890Z,24.14
2022-10-23T07:31:00.535Z,24.13
2022-10-23T07:32:02.323Z,24.14
2022-10-23T07:33:03.902Z,24.13
2022-10-23T07:34:06.336Z,24.14
2022-10-23T07:35:09.096Z,24.14
2022-10-23T07:36:10.769Z,24.17
2022-10-23T07:37:12.396Z,24.14
2022-10-23T07:38:14.043Z,24.13
2022-10-23T07:39:15.801Z,24.14
2022-10-23T07:40:18.802Z,24.15
2022-10-23T07:41:20.691Z,24.15
2022-10-23T07:42:22.251Z,24.17
2022-10-23T07:43:23.994Z,24.14
2022-10-23T07:44:27.676Z,24.13
2022-10-23T07:45:29.426Z,24.17
2022-10-23T07:46:30.948Z,24.16
2022-10-23T07:47:32.679Z,24.16
2022-10-23T07:48:34.471Z,24.16
2022-10-23T07:49:35.970Z,24.17
2022-10-23T07:50:38.834Z,24.18
2022-10-23T07:51:40.339Z,24.17
2022-10-23T07:52:41.879Z,24.17
2022-10-23T07:53:44.448Z,24.19
2022-10-23T07:54:45.992Z,24.19
2022-10-23T07:55:58.657Z,24.12
2022-10-23T07:57:00.680Z,24.13
2022-10-23T07:58:02.188Z,24.10
2022-10-23T07:59:04.424Z,24.06
2022-10-23T08:00:06.876Z,24.06
2022-10-23T08:01:17.573Z,24.04
2022-10-23T08:02:20.774Z,24.08
2022-10-23T08:03:22.356Z,24.10
2022-10-23T08:04:24.957Z,24.09
2022-10-23T08:05:26.474Z,24.11
2022-10-23T08:06:28.416Z,24.11
2022-10-23T08:07:29.992Z,24.12
2022-10-23T08:08:31.543Z,24.10
2022-10-23T08:09:34.530Z,24.12
2022-10-23T08:10:36.490Z,24.12
2022-10-23T08:11:38.068Z,24.12
2022-10-23T08:12:39.700Z,24.12
2022-10-23T08:13:41.682Z,24.15
2022-10-23T08:14:43.202Z,24.15
2022-10-23T08:15:45.244Z,24.15
2022-10-23T08:16:46.887Z,24.16
2022-10-23T08:17:48.446Z,24.17
2022-10-23T08:18:50.964Z,24.13
2022-10-23T08:19:52.550Z,24.15
2022-10-23T08:20:54.235Z,24.17
2022-10-23T08:21:57.289Z,24.14
2022-10-23T08:22:58.818Z,24.18
2022-10-23T08:24:01.167Z,24.19
2022-10-23T08:25:02.893Z,24.18
2022-10-23T08:26:06.542Z,24.17
2022-10-23T08:27:08.061Z,24.17
2022-10-23T08:28:10.084Z,24.19
2022-10-23T08:29:11.657Z,24.19
2022-10-23T08:30:13.334Z,24.17
2022-10-23T08:31:17.884Z,24.16
2022-10-23T08:32:19.366Z,24.17
2022-10-23T08:33:21.513Z,24.16
2022-10-23T08:34:23.937Z,24.14
2022-10-23T08:35:25.656Z,24.16
2022-10-23T08:36:28.802Z,24.15
2022-10-23T08:37:30.433Z,24.16
2022-10-23T08:38:33.764Z,24.15
2022-10-23T08:39:36.347Z,24.19
2022-10-23T08:40:38.198Z,24.20
2022-10-23T08:41:47.730Z,24.20
2022-10-23T08:43:05.739Z,24.18
2022-10-23T08:44:21.610Z,24.17
2022-10-23T08:45:39.662Z,24.16
2022-10-23T08:46:45.286Z,24.21
2022-10-23T08:47:53.262Z,24.21
2022-10-23T08:49:07.540Z,24.17
2022-10-23T08:51:41.904Z,24.19
2022-10-23T08:53:07.413Z,24.19
2022-10-23T08:54:21.623Z,24.19
2022-10-23T08:55:43.091Z,24.17
2022-10-23T08:56:49.897Z,24.20
2022-10-23T08:58:15.129Z,24.14
2022-10-23T08:59:32.896Z,24.17
2022-10-23T09:00:34.724Z,24.25
2022-10-23T09:01:44.101Z,24.27
2022-10-23T09:02:49.720Z,24.31
2022-10-23T09:03:51.294Z,24.29
2022-10-23T09:04:55.716Z,24.32
2022-10-23T09:06:20.060Z,24.24
2022-10-23T09:07:29.555Z,24.29
2022-10-23T09:08:37.033Z,24.29
2022-10-23T09:10:05.716Z,24.27
2022-10-23T09:11:24.322Z,24.32
2022-10-23T09:12:29.091Z,24.34
2022-10-23T09:13:30.622Z,24.34
2022-10-23T09:14:35.251Z,24.32
2022-10-23T09:15:45.584Z,24.35
2022-10-23T09:17:08.292Z,24.35
2022-10-23T09:18:15.292Z,24.37
2022-10-23T09:19:20.463Z,24.35
2022-10-23T09:20:25.164Z,24.37
2022-10-23T09:21:30.496Z,24.38
2022-10-23T09:22:32.235Z,24.37
2022-10-23T09:23:33.842Z,24.37
2022-10-23T09:24:36.467Z,24.38
2022-10-23T09:25:40.414Z,24.37
2022-10-23T09:26:42.819Z,24.37
2022-10-23T09:27:56.110Z,24.35
2022-10-23T09:29:15.275Z,24.36
2022-10-23T09:30:35.518Z,24.34
2022-10-23T09:31:51.460Z,24.34
2022-10-23T09:32:53.035Z,24.38
2022-10-23T09:33:56.872Z,24.38
2022-10-23T09:34:58.453Z,24.34
2022-10-23T09:36:08.916Z,24.31
2022-10-23T09:37:26.074Z,24.31
2022-10-23T09:38:33.164Z,24.33
2022-10-23T09:39:36.856Z,24.37
2022-10-23T09:40:42.045Z,24.36
2022-10-23T09:41:43.611Z,24.37
2022-10-23T09:43:18.945Z,24.33
2022-10-23T09:44:23.721Z,24.38
2022-10-23T09:45:29.050Z,24.38
2022-10-23T09:46:38.929Z,24.33
2022-10-23T09:47:40.705Z,24.35
2022-10-23T09:48:42.551Z,24.34
2022-10-23T09:49:49.887Z,24.32
2022-10-23T09:50:55.896Z,24.37
2022-10-23T09:52:12.966Z,24.33
2022-10-23T09:53:26.481Z,24.37
2022-10-23T09:54:31.125Z,24.39
2022-10-23T09:55:32.940Z,24.38
2022-10-23T09:56:41.869Z,24.37
2022-10-23T09:57:45.004Z,24.37
2022-10-23T09:58:56.409Z,24.37
2022-10-23T10:00:22.039Z,24.37
2022-10-23T10:01:45.604Z,24.39
2022-10-23T10:03:03.294Z,24.40
2022-10-23T10:04:04.799Z,24.41
2022-10-23T10:05:25.232Z,24.35
2022-10-23T10:06:30.389Z,24.40
2022-10-23T10:07:34.713Z,24.40
2022-10-23T10:08:47.733Z,24.39
2022-10-23T10:09:50.434Z,24.40
2022-10-23T10:10:58.043Z,24.39
2022-10-23T10:12:09.436Z,24.38
2022-10-23T10:13:34.617Z,24.38
2022-10-23T10:14:41.888Z,24.42
2022-10-23T10:15:49.834Z,24.42
2022-10-23T10:16:58.738Z,24.40
2022-10-23T10:18:14.915Z,24.35
2022-10-23T10:19:39.533Z,24.38
2022-10-23T10:20:49.939Z,24.39
2022-10-23T10:22:22.487Z,24.36
2022-10-23T10:23:34.359Z,24.40
2022-10-23T10:24:41.756Z,24.40
2022-10-23T10:26:02.714Z,24.38
2022-10-23T10:27:36.278Z,24.40
2022-10-23T10:28:58.834Z,24.38
2022-10-23T10:30:09.438Z,24.42
2022-10-23T10:31:32.141Z,24.37
2022-10-23T10:32:45.723Z,24.39
2022-10-23T10:33:56.210Z,24.37
2022-10-23T10:35:19.103Z,24.36
2022-10-23T10:36:45.459Z,24.36
2022-10-23T10:37:53.162Z,24.42
2022-10-23T10:39:03.867Z,24.41
2022-10-23T10:40:26.538Z,24.41
2022-10-23T10:41:46.372Z,24.42
2022-10-23T10:43:03.280Z,24.38
2022-10-23T10:44:07.451Z,24.41
2022-10-23T10:45:18.443Z,24.42
2022-10-23T10:46:35.871Z,24.39
2022-10-23T10:48:00.034Z,24.40
2022-10-23T10:49:15.511Z,24.45
2022-10-23T10:50:22.911Z,24.45
2022-10-23T10:51:34.670Z,24.43
2022-10-23T10:53:14.167Z,24.41
2022-10-23T10:54:28.276Z,24.44
2022-10-23T10:55:39.098Z,24.47
2022-10-23T10:56:43.843Z,24.47
2022-10-23T10:58:21.775Z,24.44
2022-10-23T10:59:33.556Z,24.47
2022-10-23T11:00:35.582Z,24.50
2022-10-23T11:01:44.200Z,24.47
2022-10-23T11:02:48.884Z,24.51
2022-10-23T11:04:10.697Z,24.50
2022-10-23T11:05:19.510Z,24.46
2022-10-23T11:06:24.499Z,24.47
2022-10-23T11:07:34.073Z,24.47
2022-10-23T11:08:49.903Z,24.50
2022-10-23T11:10:04.751Z,24.51
2022-10-23T11:11:19.101Z,24.49
2022-10-23T11:12:27.424Z,24.51
2022-10-23T11:13:33.598Z,24.49
2022-10-23T11:14:35.486Z,24.53
2022-10-23T11:15:44.041Z,24.51
2022-10-23T11:16:49.684Z,24.52
2022-10-23T11:17:58.539Z,24.52
2022-10-23T11:19:20.550Z,24.51
2022-10-23T11:20:27.803Z,24.53
2022-10-23T11:21:38.362Z,24.53
2022-10-23T11:22:53.628Z,24.51
2022-10-23T11:24:16.910Z,24.52
2022-10-23T11:26:01.873Z,24.39
2022-10-23T11:27:12.623Z,24.49
2022-10-23T11:28:56.058Z,24.42
2022-10-23T11:30:18.503Z,24.42
2022-10-23T11:31:45.541Z,24.39
2022-10-23T11:33:47.147Z,24.40
2022-10-23T11:34:52.048Z,24.50
2022-10-23T11:36:16.851Z,24.42
2022-10-23T11:37:20.475Z,24.47
2022-10-23T11:38:29.882Z,24.43
2022-10-23T11:39:33.950Z,24.45
2022-10-23T11:40:35.963Z,24.46
2022-10-23T11:41:37.570Z,24.47
2022-10-23T11:42:39.079Z,24.48
2022-10-23T11:43:48.422Z,24.45
2022-10-23T11:44:50.365Z,24.52
2022-10-23T11:45:51.905Z,24.52
2022-10-23T11:47:05.361Z,24.51
2022-10-23T11:48:40.161Z,24.51
2022-10-23T11:49:41.691Z,24.53
2022-10-23T11:50:49.578Z,24.52
2022-10-23T11:52:04.979Z,24.52
2022-10-23T11:53:23.211Z,24.56
2022-10-23T11:54:27.180Z,24.58
2022-10-23T11:55:30.950Z,24.59
2022-10-23T11:56:34.194Z,24.59
2022-10-23T11:57:35.689Z,24.59
2022-10-23T11:58:48.691Z,24.58
2022-10-23T11:59:50.156Z,24.61
2022-10-23T12:01:18.434Z,24.59
2022-10-23T12:02:42.766Z,24.60
2022-10-23T12:04:17.920Z,24.58
2022-10-23T12:05:31.837Z,24.61
2022-10-23T12:06:41.594Z,24.62
2022-10-23T12:07:44.228Z,24.65
2022-10-23T12:08:52.197Z,24.61
2022-10-23T12:10:03.276Z,24.61
2022-10-23T12:11:05.337Z,24.67
2022-10-23T12:12:09.703Z,24.64
2022-10-23T12:13:31.002Z,24.62
2022-10-23T12:14:34.066Z,24.68
2022-10-23T12:15:35.595Z,24.68
2022-10-23T12:16:37.131Z,24.64
2022-10-23T12:17:40.186Z,24.65
2022-10-23T12:18:53.240Z,24.60
2022-10-23T12:20:14.665Z,24.61
2022-10-23T12:21:28.120Z,24.65
2022-10-23T12:22:58.607Z,24.67
2022-10-23T12:24:47.866Z,24.65
2022-10-23T12:26:07.702Z,24.69
2022-10-23T12:27:32.187Z,24.69
2022-10-23T12:29:19.386Z,24.67
2022-10-23T12:31:08.550Z,24.71
2022-10-23T12:32:39.519Z,24.74
2022-10-23T12:33:53.315Z,24.75
2022-10-23T12:35:16.432Z,24.76
2022-10-23T12:36:26.974Z,24.76
2022-10-23T12:37:59.539Z,24.73
2022-10-23T12:39:01.175Z,24.79
2022-10-23T12:40:07.595Z,24.79
2022-10-23T12:41:16.635Z,24.76
2022-10-23T12:42:23.471Z,24.77
2022-10-23T12:43:27.318Z,24.79
2022-10-23T12:44:29.558Z,24.81
2022-10-23T12:45:40.078Z,24.78
2022-10-23T12:46:48.713Z,24.79
2022-10-23T12:47:51.971Z,24.80
2022-10-23T12:48:54.805Z,24.80
2022-10-23T12:49:56.335Z,24.79
2022-10-23T12:50:58.026Z,24.79
2022-10-23T12:51:59.554Z,24.78
2022-10-23T12:53:04.162Z,24.78
2022-10-23T12:54:19.017Z,24.74
2022-10-23T12:55:21.127Z,24.80
2022-10-23T12:56:25.596Z,24.79
2022-10-23T12:57:30.290Z,24.78
2022-10-23T12:58:34.639Z,24.79
2022-10-23T12:59:41.843Z,24.78
2022-10-23T13:00:51.159Z,24.78
2022-10-23T13:01:54.389Z,24.79
2022-10-23T13:03:04.022Z,24.78
2022-10-23T13:04:13.934Z,24.81
2022-10-23T13:05:19.544Z,24.79
2022-10-23T13:06:21.618Z,24.81
2022-10-23T13:07:26.768Z,24.79
2022-10-23T13:08:41.900Z,24.78
2022-10-23T13:09:45.601Z,24.85
2022-10-23T13:10:48.630Z,24.85
2022-10-23T13:11:52.132Z,24.86
2022-10-23T13:12:58.203Z,24.82
2022-10-23T13:13:59.882Z,24.82
2022-10-23T13:15:15.934Z,24.79
2022-10-23T13:16:23.134Z,24.81
2022-10-23T13:17:35.902Z,24.77
2022-10-23T13:18:41.618Z,24.80
2022-10-23T13:19:43.130Z,24.83
2022-10-23T13:20:58.669Z,24.80
2022-10-23T13:22:03.037Z,24.86
2022-10-23T13:23:31.357Z,24.79
2022-10-23T13:24:32.954Z,24.83
2022-10-23T13:25:36.779Z,24.83
2022-10-23T13:26:45.187Z,24.83
2022-10-23T13:27:47.217Z,24.84
2022-10-23T13:28:48.923Z,24.83
2022-10-23T13:29:50.530Z,24.83
2022-10-23T13:31:18.157Z,24.78
2022-10-23T13:32:30.036Z,24.83
2022-10-23T13:33:39.770Z,24.83
2022-10-23T13:35:03.529Z,24.83
2022-10-23T13:36:14.554Z,24.89
2022-10-23T13:37:24.658Z,24.85
2022-10-23T13:38:38.089Z,24.84
2022-10-23T13:39:39.598Z,24.87
2022-10-23T13:40:41.152Z,24.88
2022-10-23T13:41:46.634Z,24.82
2022-10-23T13:42:50.273Z,24.86
2022-10-23T13:43:51.817Z,24.83
2022-10-23T13:44:53.326Z,24.84
2022-10-23T13:45:54.928Z,24.82
2022-10-23T13:46:56.494Z,24.82
2022-10-23T13:47:58.013Z,24.83
2022-10-23T13:48:59.582Z,24.84
2022-10-23T13:50:01.111Z,24.83
2022-10-23T13:51:14.488Z,24.80
2022-10-23T13:52:20.663Z,24.80
2022-10-23T13:53:22.202Z,24.84
2022-10-23T13:55:34.901Z,24.86
2022-10-23T13:56:36.556Z,24.84
2022-10-23T13:57:38.067Z,24.85
2022-10-23T13:58:39.740Z,24.85
2022-10-23T13:59:42.135Z,24.86
2022-10-23T14:00:50.950Z,24.85
2022-10-23T14:01:53.177Z,24.88
2022-10-23T14:03:58.406Z,24.84
2022-10-23T14:04:59.922Z,24.87
2022-10-23T14:06:01.602Z,24.84
2022-10-23T14:07:03.108Z,24.84
2022-10-23T14:08:04.730Z,24.82
2022-10-23T14:09:08.685Z,24.80
2022-10-23T14:10:10.209Z,24.81
2022-10-23T14:12:19.316Z,24.79
2022-10-23T14:13:20.835Z,24.80
2022-10-23T14:14:22.367Z,24.82
2022-10-23T14:15:23.888Z,24.81
2022-10-23T14:16:26.036Z,24.81
2022-10-23T14:17:27.595Z,24.82
2022-10-23T14:18:29.332Z,24.83
2022-10-23T14:19:30.865Z,24.83
2022-10-23T14:20:32.480Z,24.83
2022-10-23T14:21:33.991Z,24.81
2022-10-23T14:22:35.567Z,24.81
2022-10-23T14:23:37.095Z,24.79
2022-10-23T14:24:38.678Z,24.79
2022-10-23T14:25:40.201Z,24.80
2022-10-23T14:26:43.131Z,24.78